sensor_id;sensor_type;location;lat;lon;timestamp;pressure;altitude;pressure_sealevel;temperature;humidity
59106;BME280;44891;50.204;8.132;2023-08-31T00:02:30;97602.38;;;12.08;100.00
59106;BME280;44891;50.204;8.132;2023-08-31T00:06:36;97607.16;;;12.16;100.00
59106;BME280;44891;50.204;8.132;2023-08-31T00:10:38;97594.25;;;12.09;100.00
59106;BME280;44891;50.204;8.132;2023-08-31T00:14:41;97603.44;;;12.12;100.00
59106;BME280;44891;50.204;8.132;2023-08-31T00:18:44;97611.84;;;11.98;100.00
59106;BME280;44891;50.204;8.132;2023-08-31T00:22:52;97606.59;;;11.93;100.00
59106;BME280;44891;50.204;8.132;2023-08-31T00:26:55;97607.63;;;11.87;100.00
59106;BME280;44891;50.204;8.132;2023-08-31T00:31:01;97607.88;;;11.81;100.00
59106;BME280;44891;50.204;8.132;2023-08-31T00:35:05;97604.75;;;11.89;100.00
59106;BME280;44891;50.204;8.132;2023-08-31T00:39:13;97612.03;;;11.71;100.00
59106;BME280;44891;50.204;8.132;2023-08-31T00:43:17;97616.25;;;11.62;100.00
59106;BME280;44891;50.204;8.132;2023-08-31T00:47:19;97608.84;;;11.54;100.00
59106;BME280;44891;50.204;8.132;2023-08-31T00:51:23;97612.25;;;11.50;100.00
59106;BME280;44891;50.204;8.132;2023-08-31T00:55:27;97614.56;;;11.41;100.00
59106;BME280;44891;50.204;8.132;2023-08-31T00:59:32;97619.78;;;11.26;100.00
59106;BME280;44891;50.204;8.132;2023-08-31T01:03:42;97607.72;;;11.35;100.00
59106;BME280;44891;50.204;8.132;2023-08-31T01:07:52;97610.38;;;11.40;100.00
59106;BME280;44891;50.204;8.132;2023-08-31T01:12:03;97606.69;;;11.41;100.00
59106;BME280;44891;50.204;8.132;2023-08-31T01:16:08;97610.41;;;11.45;100.00
59106;BME280;44891;50.204;8.132;2023-08-31T01:20:17;97608.97;;;11.17;100.00
59106;BME280;44891;50.204;8.132;2023-08-31T01:24:26;97604.69;;;11.01;100.00
59106;BME280;44891;50.204;8.132;2023-08-31T01:28:30;97601.00;;;11.02;100.00
59106;BME280;44891;50.204;8.132;2023-08-31T01:32:34;97609.25;;;11.21;100.00
59106;BME280;44891;50.204;8.132;2023-08-31T01:36:45;97607.97;;;11.28;100.00
59106;BME280;44891;50.204;8.132;2023-08-31T01:40:56;97619.81;;;11.31;100.00
59106;BME280;44891;50.204;8.132;2023-08-31T01:45:05;97567.94;;;11.06;100.00
59106;BME280;44891;50.204;8.132;2023-08-31T01:49:10;97620.81;;;11.20;100.00
59106;BME280;44891;50.204;8.132;2023-08-31T01:53:14;97595.41;;;10.83;100.00
59106;BME280;44891;50.204;8.132;2023-08-31T01:57:18;97626.19;;;10.93;100.00
59106;BME280;44891;50.204;8.132;2023-08-31T02:01:46;97611.63;;;10.75;100.00
59106;BME280;44891;50.204;8.132;2023-08-31T02:05:49;97641.44;;;10.96;100.00
59106;BME280;44891;50.204;8.132;2023-08-31T02:09:53;97638.63;;;11.07;100.00
59106;BME280;44891;50.204;8.132;2023-08-31T02:13:59;97634.06;;;10.93;100.00
59106;BME280;44891;50.204;8.132;2023-08-31T02:18:01;97639.63;;;10.96;100.00
59106;BME280;44891;50.204;8.132;2023-08-31T02:22:05;97627.00;;;10.98;100.00
59106;BME280;44891;50.204;8.132;2023-08-31T02:26:12;97626.78;;;11.05;100.00
59106;BME280;44891;50.204;8.132;2023-08-31T02:30:17;97638.56;;;11.02;100.00
59106;BME280;44891;50.204;8.132;2023-08-31T02:34:22;97649.84;;;10.93;100.00
59106;BME280;44891;50.204;8.132;2023-08-31T02:38:25;97640.88;;;10.88;100.00
59106;BME280;44891;50.204;8.132;2023-08-31T02:42:27;97649.03;;;10.92;100.00
59106;BME280;44891;50.204;8.132;2023-08-31T02:46:33;97629.91;;;10.97;100.00
59106;BME280;44891;50.204;8.132;2023-08-31T02:50:37;97629.72;;;11.13;100.00
59106;BME280;44891;50.204;8.132;2023-08-31T02:54:40;97638.28;;;10.94;100.00
59106;BME280;44891;50.204;8.132;2023-08-31T02:58:49;97625.28;;;11.19;100.00
59106;BME280;44891;50.204;8.132;2023-08-31T03:02:57;97577.78;;;10.78;100.00
59106;BME280;44891;50.204;8.132;2023-08-31T03:07:02;97642.06;;;11.13;100.00
59106;BME280;44891;50.204;8.132;2023-08-31T03:11:06;97629.38;;;11.00;100.00
59106;BME280;44891;50.204;8.132;2023-08-31T03:15:13;97630.97;;;11.01;100.00
59106;BME280;44891;50.204;8.132;2023-08-31T03:19:17;97629.44;;;11.10;100.00
59106;BME280;44891;50.204;8.132;2023-08-31T03:23:19;97638.25;;;10.88;100.00
59106;BME280;44891;50.204;8.132;2023-08-31T03:27:22;97639.84;;;10.95;100.00
59106;BME280;44891;50.204;8.132;2023-08-31T03:31:25;97646.72;;;11.01;100.00
59106;BME280;44891;50.204;8.132;2023-08-31T03:35:32;97651.75;;;11.07;100.00
59106;BME280;44891;50.204;8.132;2023-08-31T03:39:35;97650.94;;;11.02;100.00
59106;BME280;44891;50.204;8.132;2023-08-31T03:43:38;97656.19;;;10.97;100.00
59106;BME280;44891;50.204;8.132;2023-08-31T03:47:43;97644.25;;;10.79;100.00
59106;BME280;44891;50.204;8.132;2023-08-31T03:51:47;97661.00;;;10.73;100.00
59106;BME280;44891;50.204;8.132;2023-08-31T03:55:50;97664.63;;;10.67;100.00
59106;BME280;44891;50.204;8.132;2023-08-31T03:59:55;97613.81;;;10.46;100.00
59106;BME280;44891;50.204;8.132;2023-08-31T04:04:01;97681.00;;;10.79;100.00
59106;BME280;44891;50.204;8.132;2023-08-31T04:08:07;97629.81;;;10.44;100.00
59106;BME280;44891;50.204;8.132;2023-08-31T04:12:12;97682.38;;;10.86;100.00
59106;BME280;44891;50.204;8.132;2023-08-31T04:16:17;97689.31;;;10.66;100.00
59106;BME280;44891;50.204;8.132;2023-08-31T04:20:24;97683.75;;;10.62;100.00
59106;BME280;44891;50.204;8.132;2023-08-31T04:24:28;97626.53;;;10.00;100.00
59106;BME280;44891;50.204;8.132;2023-08-31T04:28:32;97678.28;;;10.37;100.00
59106;BME280;44891;50.204;8.132;2023-08-31T04:32:35;97698.94;;;10.55;100.00
59106;BME280;44891;50.204;8.132;2023-08-31T04:36:41;97690.19;;;10.44;100.00
59106;BME280;44891;50.204;8.132;2023-08-31T04:40:49;97698.03;;;10.39;100.00
59106;BME280;44891;50.204;8.132;2023-08-31T04:44:53;97701.47;;;10.45;100.00
59106;BME280;44891;50.204;8.132;2023-08-31T04:48:57;97720.91;;;10.44;100.00
59106;BME280;44891;50.204;8.132;2023-08-31T04:53:00;97718.38;;;10.27;100.00
59106;BME280;44891;50.204;8.132;2023-08-31T04:57:06;97724.34;;;10.49;100.00
59106;BME280;44891;50.204;8.132;2023-08-31T05:01:11;97720.84;;;10.39;100.00
59106;BME280;44891;50.204;8.132;2023-08-31T05:05:16;97711.16;;;10.39;100.00
59106;BME280;44891;50.204;8.132;2023-08-31T05:09:19;97740.28;;;10.43;100.00
59106;BME280;44891;50.204;8.132;2023-08-31T05:13:23;97745.16;;;10.29;100.00
59106;BME280;44891;50.204;8.132;2023-08-31T05:17:27;97752.50;;;10.27;100.00
59106;BME280;44891;50.204;8.132;2023-08-31T05:21:35;97763.78;;;10.27;100.00
59106;BME280;44891;50.204;8.132;2023-08-31T05:25:41;97760.91;;;10.29;100.00
59106;BME280;44891;50.204;8.132;2023-08-31T05:29:48;97765.56;;;10.49;100.00
59106;BME280;44891;50.204;8.132;2023-08-31T05:33:50;97768.75;;;10.51;100.00
59106;BME280;44891;50.204;8.132;2023-08-31T05:37:57;97774.91;;;10.67;100.00
59106;BME280;44891;50.204;8.132;2023-08-31T05:42:00;97772.84;;;11.01;100.00
59106;BME280;44891;50.204;8.132;2023-08-31T05:46:04;97780.84;;;11.16;100.00
59106;BME280;44891;50.204;8.132;2023-08-31T05:50:07;97787.56;;;11.39;100.00
59106;BME280;44891;50.204;8.132;2023-08-31T05:54:10;97781.34;;;11.55;100.00
59106;BME280;44891;50.204;8.132;2023-08-31T05:58:14;97784.81;;;11.66;100.00
59106;BME280;44891;50.204;8.132;2023-08-31T06:02:24;97787.50;;;11.71;100.00
59106;BME280;44891;50.204;8.132;2023-08-31T06:06:26;97802.53;;;11.76;100.00
59106;BME280;44891;50.204;8.132;2023-08-31T06:10:29;97800.16;;;11.79;100.00
59106;BME280;44891;50.204;8.132;2023-08-31T06:14:37;97788.28;;;11.71;100.00
59106;BME280;44891;50.204;8.132;2023-08-31T06:18:40;97798.41;;;11.90;100.00
59106;BME280;44891;50.204;8.132;2023-08-31T06:22:47;97801.28;;;11.83;100.00
59106;BME280;44891;50.204;8.132;2023-08-31T06:26:50;97786.22;;;11.79;100.00
59106;BME280;44891;50.204;8.132;2023-08-31T06:30:53;97812.16;;;12.07;100.00
59106;BME280;44891;50.204;8.132;2023-08-31T06:34:57;97806.16;;;12.27;100.00
59106;BME280;44891;50.204;8.132;2023-08-31T06:38:59;97809.09;;;12.41;100.00
59106;BME280;44891;50.204;8.132;2023-08-31T06:43:01;97810.47;;;12.74;100.00
59106;BME280;44891;50.204;8.132;2023-08-31T06:47:04;97827.91;;;13.05;100.00
59106;BME280;44891;50.204;8.132;2023-08-31T06:51:08;97821.63;;;13.22;100.00
59106;BME280;44891;50.204;8.132;2023-08-31T06:55:13;97819.25;;;13.36;100.00
59106;BME280;44891;50.204;8.132;2023-08-31T06:59:16;97837.97;;;13.44;99.69
59106;BME280;44891;50.204;8.132;2023-08-31T07:03:18;97826.38;;;13.35;99.42
59106;BME280;44891;50.204;8.132;2023-08-31T07:07:22;97842.16;;;13.50;98.76
59106;BME280;44891;50.204;8.132;2023-08-31T07:11:25;97814.75;;;13.41;97.16
59106;BME280;44891;50.204;8.132;2023-08-31T07:15:30;97848.25;;;13.56;95.27
59106;BME280;44891;50.204;8.132;2023-08-31T07:19:37;97846.91;;;13.53;96.20
59106;BME280;44891;50.204;8.132;2023-08-31T07:23:41;97831.34;;;13.62;95.38
59106;BME280;44891;50.204;8.132;2023-08-31T07:27:44;97852.19;;;13.74;95.14
59106;BME280;44891;50.204;8.132;2023-08-31T07:31:53;97841.06;;;13.82;93.66
59106;BME280;44891;50.204;8.132;2023-08-31T07:35:55;97839.72;;;13.84;93.47
59106;BME280;44891;50.204;8.132;2023-08-31T07:40:02;97836.81;;;13.86;94.75
59106;BME280;44891;50.204;8.132;2023-08-31T07:44:09;97847.91;;;13.83;94.63
59106;BME280;44891;50.204;8.132;2023-08-31T07:48:14;97835.50;;;13.83;96.06
59106;BME280;44891;50.204;8.132;2023-08-31T07:52:17;97837.06;;;13.95;93.90
59106;BME280;44891;50.204;8.132;2023-08-31T07:56:22;97848.94;;;13.97;95.10
59106;BME280;44891;50.204;8.132;2023-08-31T08:00:26;97854.13;;;14.28;95.50
59106;BME280;44891;50.204;8.132;2023-08-31T08:04:29;97866.72;;;14.51;94.63
59106;BME280;44891;50.204;8.132;2023-08-31T08:08:32;97863.03;;;14.42;90.11
59106;BME280;44891;50.204;8.132;2023-08-31T08:12:42;97869.06;;;14.58;89.73
59106;BME280;44891;50.204;8.132;2023-08-31T08:16:46;97883.97;;;14.93;89.62
59106;BME280;44891;50.204;8.132;2023-08-31T08:20:49;97877.97;;;14.72;86.99
59106;BME280;44891;50.204;8.132;2023-08-31T08:24:52;97878.63;;;14.49;86.66
59106;BME280;44891;50.204;8.132;2023-08-31T08:28:58;97837.97;;;14.34;89.20
59106;BME280;44891;50.204;8.132;2023-08-31T08:33:00;97885.31;;;14.85;88.51
59106;BME280;44891;50.204;8.132;2023-08-31T08:37:04;97883.38;;;14.96;88.66
59106;BME280;44891;50.204;8.132;2023-08-31T08:41:06;97901.84;;;14.57;88.10
59106;BME280;44891;50.204;8.132;2023-08-31T08:45:13;97908.53;;;14.93;87.51
59106;BME280;44891;50.204;8.132;2023-08-31T08:49:18;97905.59;;;15.39;87.05
59106;BME280;44891;50.204;8.132;2023-08-31T08:53:20;97911.88;;;15.43;86.79
59106;BME280;44891;50.204;8.132;2023-08-31T08:57:23;97905.13;;;15.32;85.03
59106;BME280;44891;50.204;8.132;2023-08-31T09:01:27;97891.34;;;15.30;85.30
59106;BME280;44891;50.204;8.132;2023-08-31T09:05:31;97898.00;;;15.62;86.76
59106;BME280;44891;50.204;8.132;2023-08-31T09:09:48;97894.09;;;15.54;86.30
59106;BME280;44891;50.204;8.132;2023-08-31T09:13:51;97913.28;;;15.70;87.96
59106;BME280;44891;50.204;8.132;2023-08-31T09:17:55;97909.94;;;15.59;86.59
59106;BME280;44891;50.204;8.132;2023-08-31T09:21:57;97918.38;;;15.66;86.75
59106;BME280;44891;50.204;8.132;2023-08-31T09:26:04;97909.34;;;15.67;85.83
59106;BME280;44891;50.204;8.132;2023-08-31T09:30:07;97918.66;;;15.94;87.07
59106;BME280;44891;50.204;8.132;2023-08-31T09:34:15;97910.53;;;16.09;86.62
59106;BME280;44891;50.204;8.132;2023-08-31T09:38:18;97916.22;;;15.97;82.25
59106;BME280;44891;50.204;8.132;2023-08-31T09:42:21;97901.56;;;15.81;83.06
59106;BME280;44891;50.204;8.132;2023-08-31T09:46:24;97911.81;;;15.88;83.30
59106;BME280;44891;50.204;8.132;2023-08-31T09:50:28;97911.97;;;15.96;82.53
59106;BME280;44891;50.204;8.132;2023-08-31T09:54:35;97877.84;;;16.19;82.11
59106;BME280;44891;50.204;8.132;2023-08-31T09:58:37;97903.84;;;16.83;82.13
59106;BME280;44891;50.204;8.132;2023-08-31T10:02:40;97902.84;;;16.79;77.70
59106;BME280;44891;50.204;8.132;2023-08-31T10:06:45;97909.50;;;17.33;77.19
59106;BME280;44891;50.204;8.132;2023-08-31T10:10:49;97919.69;;;17.26;75.48
59106;BME280;44891;50.204;8.132;2023-08-31T10:14:52;97900.69;;;16.81;74.72
59106;BME280;44891;50.204;8.132;2023-08-31T10:18:56;97920.56;;;17.03;75.89
59106;BME280;44891;50.204;8.132;2023-08-31T10:23:02;97927.00;;;16.97;75.98
59106;BME280;44891;50.204;8.132;2023-08-31T10:27:18;97907.75;;;16.67;74.11
59106;BME280;44891;50.204;8.132;2023-08-31T10:31:21;97934.72;;;16.74;74.43
59106;BME280;44891;50.204;8.132;2023-08-31T10:35:40;97920.28;;;16.62;73.87
59106;BME280;44891;50.204;8.132;2023-08-31T10:39:48;97927.59;;;16.94;73.16
59106;BME280;44891;50.204;8.132;2023-08-31T10:43:52;97922.88;;;17.61;71.75
59106;BME280;44891;50.204;8.132;2023-08-31T10:48:00;97920.44;;;17.64;70.23
59106;BME280;44891;50.204;8.132;2023-08-31T10:52:17;97930.84;;;17.61;70.47
59106;BME280;44891;50.204;8.132;2023-08-31T10:56:21;97919.16;;;18.63;69.84
59106;BME280;44891;50.204;8.132;2023-08-31T11:00:47;97919.28;;;18.58;68.46
59106;BME280;44891;50.204;8.132;2023-08-31T11:04:53;97919.84;;;18.14;66.81
59106;BME280;44891;50.204;8.132;2023-08-31T11:08:56;97866.38;;;17.74;68.74
59106;BME280;44891;50.204;8.132;2023-08-31T11:13:00;97913.81;;;17.94;70.55
59106;BME280;44891;50.204;8.132;2023-08-31T11:17:07;97930.94;;;18.02;68.66
59106;BME280;44891;50.204;8.132;2023-08-31T11:21:12;97929.31;;;17.74;68.62
59106;BME280;44891;50.204;8.132;2023-08-31T11:25:17;97920.63;;;17.68;69.50
59106;BME280;44891;50.204;8.132;2023-08-31T11:29:21;97917.34;;;17.76;69.77
59106;BME280;44891;50.204;8.132;2023-08-31T11:33:24;97911.31;;;17.71;70.10
59106;BME280;44891;50.204;8.132;2023-08-31T11:37:33;97912.34;;;17.88;68.30
59106;BME280;44891;50.204;8.132;2023-08-31T11:41:37;97908.75;;;18.39;66.71
59106;BME280;44891;50.204;8.132;2023-08-31T11:45:44;97892.50;;;18.27;68.28
59106;BME280;44891;50.204;8.132;2023-08-31T11:49:49;97908.72;;;18.53;64.52
59106;BME280;44891;50.204;8.132;2023-08-31T11:53:56;97903.81;;;18.19;64.85
59106;BME280;44891;50.204;8.132;2023-08-31T11:58:00;97898.50;;;18.19;65.42
59106;BME280;44891;50.204;8.132;2023-08-31T12:02:08;97857.75;;;18.10;63.92
59106;BME280;44891;50.204;8.132;2023-08-31T12:06:11;97888.03;;;18.09;64.30
59106;BME280;44891;50.204;8.132;2023-08-31T12:10:14;97880.63;;;18.61;62.15
59106;BME280;44891;50.204;8.132;2023-08-31T12:14:23;97891.97;;;19.16;61.29
59106;BME280;44891;50.204;8.132;2023-08-31T12:18:29;97898.28;;;19.43;57.84
59106;BME280;44891;50.204;8.132;2023-08-31T12:22:34;97899.72;;;19.71;58.83
59106;BME280;44891;50.204;8.132;2023-08-31T12:26:47;97892.75;;;19.84;58.33
59106;BME280;44891;50.204;8.132;2023-08-31T12:30:59;97891.38;;;19.42;60.06
59106;BME280;44891;50.204;8.132;2023-08-31T12:35:07;97868.88;;;20.10;58.82
59106;BME280;44891;50.204;8.132;2023-08-31T12:39:10;97881.44;;;20.75;55.84
59106;BME280;44891;50.204;8.132;2023-08-31T12:43:15;97877.84;;;21.49;51.80
59106;BME280;44891;50.204;8.132;2023-08-31T12:47:18;97883.75;;;21.72;49.72
59106;BME280;44891;50.204;8.132;2023-08-31T12:51:23;97841.56;;;20.79;48.04
59106;BME280;44891;50.204;8.132;2023-08-31T12:55:27;97883.03;;;21.37;49.98
59106;BME280;44891;50.204;8.132;2023-08-31T12:59:31;97895.13;;;20.91;50.18
59106;BME280;44891;50.204;8.132;2023-08-31T13:03:36;97887.56;;;21.19;50.89
59106;BME280;44891;50.204;8.132;2023-08-31T13:07:40;97895.06;;;21.78;52.02
59106;BME280;44891;50.204;8.132;2023-08-31T13:11:43;97890.78;;;21.94;50.56
59106;BME280;44891;50.204;8.132;2023-08-31T13:15:46;97891.09;;;21.92;49.24
59106;BME280;44891;50.204;8.132;2023-08-31T13:19:48;97885.13;;;22.34;49.47
59106;BME280;44891;50.204;8.132;2023-08-31T13:23:59;97883.34;;;21.27;49.98
59106;BME280;44891;50.204;8.132;2023-08-31T13:28:02;97872.50;;;21.23;50.34
59106;BME280;44891;50.204;8.132;2023-08-31T13:32:07;97863.81;;;22.46;48.52
59106;BME280;44891;50.204;8.132;2023-08-31T13:36:09;97865.09;;;22.02;50.30
59106;BME280;44891;50.204;8.132;2023-08-31T13:40:14;97864.16;;;22.36;48.15
59106;BME280;44891;50.204;8.132;2023-08-31T13:44:17;97876.06;;;21.70;47.60
59106;BME280;44891;50.204;8.132;2023-08-31T13:48:20;97863.13;;;22.78;46.65
59106;BME280;44891;50.204;8.132;2023-08-31T13:52:23;97866.03;;;22.14;47.04
59106;BME280;44891;50.204;8.132;2023-08-31T13:56:27;97863.25;;;21.21;47.68
59106;BME280;44891;50.204;8.132;2023-08-31T14:00:29;97861.94;;;22.67;46.46
59106;BME280;44891;50.204;8.132;2023-08-31T14:04:32;97865.56;;;22.92;46.60
59106;BME280;44891;50.204;8.132;2023-08-31T14:08:34;97816.56;;;23.13;45.03
59106;BME280;44891;50.204;8.132;2023-08-31T14:12:38;97853.06;;;24.97;43.56
59106;BME280;44891;50.204;8.132;2023-08-31T14:16:41;97849.34;;;24.49;42.12
59106;BME280;44891;50.204;8.132;2023-08-31T14:20:44;97858.69;;;23.37;44.52
59106;BME280;44891;50.204;8.132;2023-08-31T14:24:46;97861.25;;;21.82;47.52
59106;BME280;44891;50.204;8.132;2023-08-31T14:28:50;97818.25;;;22.34;47.56
59106;BME280;44891;50.204;8.132;2023-08-31T14:32:53;97856.47;;;21.32;48.95
59106;BME280;44891;50.204;8.132;2023-08-31T14:36:55;97850.44;;;22.46;47.66
59106;BME280;44891;50.204;8.132;2023-08-31T14:41:01;97856.06;;;22.23;46.73
59106;BME280;44891;50.204;8.132;2023-08-31T14:45:07;97857.44;;;22.59;47.86
59106;BME280;44891;50.204;8.132;2023-08-31T14:49:09;97866.34;;;21.57;48.80
59106;BME280;44891;50.204;8.132;2023-08-31T14:53:12;97864.53;;;22.55;48.86
59106;BME280;44891;50.204;8.132;2023-08-31T14:57:18;97859.91;;;23.27;47.38
59106;BME280;44891;50.204;8.132;2023-08-31T15:01:24;97763.50;;;23.51;44.83
59106;BME280;44891;50.204;8.132;2023-08-31T15:05:27;97855.28;;;24.42;44.81
59106;BME280;44891;50.204;8.132;2023-08-31T15:09:33;97846.13;;;22.74;47.17
59106;BME280;44891;50.204;8.132;2023-08-31T15:13:39;97838.75;;;20.75;50.24
59106;BME280;44891;50.204;8.132;2023-08-31T15:17:44;97873.00;;;21.08;52.38
59106;BME280;44891;50.204;8.132;2023-08-31T15:21:46;97875.00;;;20.76;51.91
59106;BME280;44891;50.204;8.132;2023-08-31T15:25:49;97882.56;;;21.35;50.22
59106;BME280;44891;50.204;8.132;2023-08-31T15:29:51;97846.56;;;22.35;47.91
59106;BME280;44891;50.204;8.132;2023-08-31T15:33:55;97863.34;;;24.30;45.44
59106;BME280;44891;50.204;8.132;2023-08-31T15:37:59;97874.50;;;24.69;44.04
59106;BME280;44891;50.204;8.132;2023-08-31T15:42:01;97857.41;;;24.49;42.93
59106;BME280;44891;50.204;8.132;2023-08-31T15:46:04;97861.69;;;24.50;42.35
59106;BME280;44891;50.204;8.132;2023-08-31T15:50:08;97874.25;;;24.86;42.57
59106;BME280;44891;50.204;8.132;2023-08-31T15:54:11;97878.59;;;25.31;42.89
59106;BME280;44891;50.204;8.132;2023-08-31T15:58:13;97876.94;;;23.64;45.33
59106;BME280;44891;50.204;8.132;2023-08-31T16:02:15;97886.88;;;22.59;48.12
59106;BME280;44891;50.204;8.132;2023-08-31T16:06:19;97878.28;;;22.45;47.95
59106;BME280;44891;50.204;8.132;2023-08-31T16:10:22;97868.31;;;21.86;50.99
59106;BME280;44891;50.204;8.132;2023-08-31T16:14:24;97887.41;;;21.67;51.16
59106;BME280;44891;50.204;8.132;2023-08-31T16:18:26;97890.41;;;21.49;52.40
59106;BME280;44891;50.204;8.132;2023-08-31T16:22:30;97806.75;;;19.39;54.33
59106;BME280;44891;50.204;8.132;2023-08-31T16:26:32;97885.00;;;19.74;54.66
59106;BME280;44891;50.204;8.132;2023-08-31T16:30:35;97893.31;;;19.50;54.63
59106;BME280;44891;50.204;8.132;2023-08-31T16:34:38;97890.81;;;19.09;55.80
59106;BME280;44891;50.204;8.132;2023-08-31T16:38:57;97889.41;;;18.89;56.34
59106;BME280;44891;50.204;8.132;2023-08-31T16:42:59;97882.63;;;18.83;56.37
59106;BME280;44891;50.204;8.132;2023-08-31T16:47:02;97843.53;;;18.56;58.13
59106;BME280;44891;50.204;8.132;2023-08-31T16:51:07;97893.16;;;18.60;58.42
59106;BME280;44891;50.204;8.132;2023-08-31T16:55:15;97895.25;;;18.77;58.29
59106;BME280;44891;50.204;8.132;2023-08-31T16:59:21;97893.94;;;18.61;58.69
59106;BME280;44891;50.204;8.132;2023-08-31T17:03:25;97890.78;;;18.59;60.10
59106;BME280;44891;50.204;8.132;2023-08-31T17:07:27;97878.63;;;18.30;61.21
59106;BME280;44891;50.204;8.132;2023-08-31T17:11:35;97886.38;;;18.27;60.69
59106;BME280;44891;50.204;8.132;2023-08-31T17:15:41;97883.63;;;18.18;60.89
59106;BME280;44891;50.204;8.132;2023-08-31T17:19:50;97844.28;;;17.60;62.75
59106;BME280;44891;50.204;8.132;2023-08-31T17:23:53;97899.56;;;17.90;62.53
59106;BME280;44891;50.204;8.132;2023-08-31T17:27:57;97897.72;;;18.05;61.83
59106;BME280;44891;50.204;8.132;2023-08-31T17:32:05;97890.28;;;17.88;62.39
59106;BME280;44891;50.204;8.132;2023-08-31T17:36:11;97903.19;;;17.94;61.99
59106;BME280;44891;50.204;8.132;2023-08-31T17:40:16;97910.34;;;17.80;62.90
59106;BME280;44891;50.204;8.132;2023-08-31T17:44:20;97912.91;;;17.72;62.80
59106;BME280;44891;50.204;8.132;2023-08-31T17:48:26;97891.03;;;17.42;63.22
59106;BME280;44891;50.204;8.132;2023-08-31T17:52:30;97875.31;;;17.13;62.70
59106;BME280;44891;50.204;8.132;2023-08-31T17:56:36;97897.25;;;17.37;62.45
59106;BME280;44891;50.204;8.132;2023-08-31T18:00:41;97866.94;;;16.87;63.65
59106;BME280;44891;50.204;8.132;2023-08-31T18:04:46;97937.00;;;17.24;63.90
59106;BME280;44891;50.204;8.132;2023-08-31T18:08:53;97939.72;;;17.19;63.72
59106;BME280;44891;50.204;8.132;2023-08-31T18:12:57;97933.63;;;16.99;64.26
59106;BME280;44891;50.204;8.132;2023-08-31T18:17:02;97951.53;;;17.07;64.59
59106;BME280;44891;50.204;8.132;2023-08-31T18:21:04;97939.41;;;17.01;64.26
59106;BME280;44891;50.204;8.132;2023-08-31T18:25:08;97939.84;;;16.90;64.31
59106;BME280;44891;50.204;8.132;2023-08-31T18:29:12;97940.06;;;16.69;65.03
59106;BME280;44891;50.204;8.132;2023-08-31T18:33:16;97939.28;;;16.69;65.32
59106;BME280;44891;50.204;8.132;2023-08-31T18:37:25;97951.75;;;16.68;65.79
59106;BME280;44891;50.204;8.132;2023-08-31T18:41:31;97950.28;;;16.57;65.67
59106;BME280;44891;50.204;8.132;2023-08-31T18:45:36;97964.13;;;16.78;65.60
59106;BME280;44891;50.204;8.132;2023-08-31T18:49:49;97911.03;;;16.35;65.13
59106;BME280;44891;50.204;8.132;2023-08-31T18:53:52;97970.28;;;16.73;65.95
59106;BME280;44891;50.204;8.132;2023-08-31T18:57:54;97954.53;;;16.58;66.95
59106;BME280;44891;50.204;8.132;2023-08-31T19:02:00;97971.38;;;16.43;67.51
59106;BME280;44891;50.204;8.132;2023-08-31T19:06:07;97962.25;;;16.54;67.32
59106;BME280;44891;50.204;8.132;2023-08-31T19:10:12;97936.34;;;16.22;67.54
59106;BME280;44891;50.204;8.132;2023-08-31T19:14:18;97980.06;;;16.49;68.61
59106;BME280;44891;50.204;8.132;2023-08-31T19:18:22;97992.81;;;16.47;68.66
59106;BME280;44891;50.204;8.132;2023-08-31T19:22:30;98002.41;;;16.43;69.27
59106;BME280;44891;50.204;8.132;2023-08-31T19:26:37;97991.53;;;16.15;70.98
59106;BME280;44891;50.204;8.132;2023-08-31T19:30:43;98007.91;;;16.22;74.14
59106;BME280;44891;50.204;8.132;2023-08-31T19:34:48;98006.25;;;16.31;73.22
59106;BME280;44891;50.204;8.132;2023-08-31T19:39:01;98009.94;;;16.30;74.51
59106;BME280;44891;50.204;8.132;2023-08-31T19:43:04;98005.69;;;16.06;74.40
59106;BME280;44891;50.204;8.132;2023-08-31T19:47:12;98004.97;;;15.95;74.39
59106;BME280;44891;50.204;8.132;2023-08-31T19:51:14;97997.75;;;16.06;75.52
59106;BME280;44891;50.204;8.132;2023-08-31T19:55:18;98011.78;;;16.06;75.84
59106;BME280;44891;50.204;8.132;2023-08-31T19:59:24;98014.63;;;16.10;76.14
59106;BME280;44891;50.204;8.132;2023-08-31T20:03:34;98028.53;;;15.96;76.26
59106;BME280;44891;50.204;8.132;2023-08-31T20:07:40;97989.69;;;15.87;76.80
59106;BME280;44891;50.204;8.132;2023-08-31T20:11:46;98016.59;;;15.99;75.94
59106;BME280;44891;50.204;8.132;2023-08-31T20:15:49;97985.31;;;15.72;76.90
59106;BME280;44891;50.204;8.132;2023-08-31T20:19:56;98007.34;;;15.62;78.65
59106;BME280;44891;50.204;8.132;2023-08-31T20:24:03;98008.19;;;15.53;78.73
59106;BME280;44891;50.204;8.132;2023-08-31T20:28:07;98006.50;;;15.67;78.36
59106;BME280;44891;50.204;8.132;2023-08-31T20:32:16;98009.91;;;15.72;78.75
59106;BME280;44891;50.204;8.132;2023-08-31T20:36:21;97997.41;;;15.39;80.08
59106;BME280;44891;50.204;8.132;2023-08-31T20:40:25;98021.16;;;15.49;80.81
59106;BME280;44891;50.204;8.132;2023-08-31T20:44:33;98016.66;;;15.49;81.55
59106;BME280;44891;50.204;8.132;2023-08-31T20:48:37;98020.19;;;15.35;82.26
59106;BME280;44891;50.204;8.132;2023-08-31T20:52:42;98010.59;;;15.44;83.25
59106;BME280;44891;50.204;8.132;2023-08-31T20:56:47;98022.44;;;15.51;83.79
59106;BME280;44891;50.204;8.132;2023-08-31T21:00:55;98017.22;;;15.46;85.05
59106;BME280;44891;50.204;8.132;2023-08-31T21:04:58;98026.13;;;15.56;84.75
59106;BME280;44891;50.204;8.132;2023-08-31T21:09:03;98025.59;;;15.59;85.30
59106;BME280;44891;50.204;8.132;2023-08-31T21:13:08;98018.19;;;15.56;85.53
59106;BME280;44891;50.204;8.132;2023-08-31T21:17:16;98005.41;;;15.29;87.58
59106;BME280;44891;50.204;8.132;2023-08-31T21:21:22;98014.88;;;15.40;88.54
59106;BME280;44891;50.204;8.132;2023-08-31T21:25:24;97976.41;;;15.13;87.40
59106;BME280;44891;50.204;8.132;2023-08-31T21:29:29;98020.09;;;15.50;88.63
59106;BME280;44891;50.204;8.132;2023-08-31T21:33:39;98010.38;;;15.35;89.31